sensor_id;sensor_type;location;lat;lon;timestamp;pressure;altitude;pressure_sealevel;temperature;humidity
26489;BME280;14169;43.684;10.484;2023-03-14T00:00:09;101248.31;;;14.50;100.00
26489;BME280;14169;43.684;10.484;2023-03-14T00:02:36;101237.81;;;14.50;100.00
26489;BME280;14169;43.684;10.484;2023-03-14T00:05:01;101235.25;;;14.48;100.00
26489;BME280;14169;43.684;10.484;2023-03-14T00:07:35;101232.75;;;14.45;100.00
26489;BME280;14169;43.684;10.484;2023-03-14T00:10:06;101228.50;;;14.43;100.00
26489;BME280;14169;43.684;10.484;2023-03-14T00:12:32;101225.13;;;14.39;100.00
26489;BME280;14169;43.684;10.484;2023-03-14T00:14:57;101228.03;;;14.33;100.00
26489;BME280;14169;43.684;10.484;2023-03-14T00:17:24;101223.88;;;14.26;100.00
26489;BME280;14169;43.684;10.484;2023-03-14T00:19:49;101205.22;;;14.12;100.00
26489;BME280;14169;43.684;10.484;2023-03-14T00:22:18;101202.06;;;14.04;100.00
26489;BME280;14169;43.684;10.484;2023-03-14T00:24:43;101195.16;;;14.01;100.00
26489;BME280;14169;43.684;10.484;2023-03-14T00:27:08;101194.50;;;13.96;100.00
26489;BME280;14169;43.684;10.484;2023-03-14T00:29:34;101178.28;;;13.87;100.00
26489;BME280;14169;43.684;10.484;2023-03-14T00:32:00;101165.47;;;13.79;100.00
26489;BME280;14169;43.684;10.484;2023-03-14T00:34:29;101149.16;;;13.73;100.00
26489;BME280;14169;43.684;10.484;2023-03-14T00:36:54;101136.16;;;13.70;100.00
26489;BME280;14169;43.684;10.484;2023-03-14T00:39:20;101124.22;;;13.63;100.00
26489;BME280;14169;43.684;10.484;2023-03-14T00:41:45;101132.16;;;13.61;100.00
26489;BME280;14169;43.684;10.484;2023-03-14T00:44:11;101132.94;;;13.63;100.00
26489;BME280;14169;43.684;10.484;2023-03-14T00:46:37;101120.81;;;13.61;100.00
26489;BME280;14169;43.684;10.484;2023-03-14T00:49:02;101118.13;;;13.62;100.00
26489;BME280;14169;43.684;10.484;2023-03-14T00:51:27;101108.63;;;13.60;100.00
26489;BME280;14169;43.684;10.484;2023-03-14T00:53:53;101108.63;;;13.60;100.00
26489;BME280;14169;43.684;10.484;2023-03-14T00:56:18;101094.50;;;13.64;100.00
26489;BME280;14169;43.684;10.484;2023-03-14T00:58:44;101082.44;;;13.60;100.00
26489;BME280;14169;43.684;10.484;2023-03-14T01:01:13;101085.84;;;13.62;100.00
26489;BME280;14169;43.684;10.484;2023-03-14T01:03:39;101073.63;;;13.62;100.00
26489;BME280;14169;43.684;10.484;2023-03-14T01:06:16;101072.75;;;13.62;100.00
26489;BME280;14169;43.684;10.484;2023-03-14T01:08:42;101070.22;;;13.60;100.00
26489;BME280;14169;43.684;10.484;2023-03-14T01:11:10;101068.53;;;13.59;100.00
26489;BME280;14169;43.684;10.484;2023-03-14T01:13:36;101065.91;;;13.59;100.00
26489;BME280;14169;43.684;10.484;2023-03-14T01:16:03;101064.81;;;13.65;100.00
26489;BME280;14169;43.684;10.484;2023-03-14T01:18:30;101058.78;;;13.63;100.00
26489;BME280;14169;43.684;10.484;2023-03-14T01:20:55;101053.66;;;13.60;100.00
26489;BME280;14169;43.684;10.484;2023-03-14T01:23:21;101045.94;;;13.57;100.00
26489;BME280;14169;43.684;10.484;2023-03-14T01:25:46;101041.59;;;13.56;100.00
26489;BME280;14169;43.684;10.484;2023-03-14T01:28:12;101034.59;;;13.56;100.00
26489;BME280;14169;43.684;10.484;2023-03-14T01:30:37;101006.78;;;13.54;100.00
26489;BME280;14169;43.684;10.484;2023-03-14T01:33:02;101015.38;;;13.57;100.00
26489;BME280;14169;43.684;10.484;2023-03-14T01:35:28;100993.75;;;13.52;100.00
26489;BME280;14169;43.684;10.484;2023-03-14T01:37:53;100998.97;;;13.52;100.00
26489;BME280;14169;43.684;10.484;2023-03-14T01:40:18;100986.69;;;13.54;100.00
26489;BME280;14169;43.684;10.484;2023-03-14T01:42:46;100984.38;;;13.46;100.00
26489;BME280;14169;43.684;10.484;2023-03-14T01:48:18;100965.59;;;13.37;100.00
26489;BME280;14169;43.684;10.484;2023-03-14T01:50:44;100970.84;;;13.35;100.00
26489;BME280;14169;43.684;10.484;2023-03-14T01:53:09;100978.91;;;13.31;100.00
26489;BME280;14169;43.684;10.484;2023-03-14T01:55:36;100972.81;;;13.30;100.00
26489;BME280;14169;43.684;10.484;2023-03-14T01:58:03;100974.56;;;13.30;100.00
26489;BME280;14169;43.684;10.484;2023-03-14T02:00:30;100968.53;;;13.28;100.00
26489;BME280;14169;43.684;10.484;2023-03-14T02:03:00;100974.63;;;13.28;100.00
26489;BME280;14169;43.684;10.484;2023-03-14T02:05:30;100964.09;;;13.30;100.00
26489;BME280;14169;43.684;10.484;2023-03-14T02:07:59;100961.50;;;13.30;100.00
26489;BME280;14169;43.684;10.484;2023-03-14T02:10:31;100952.53;;;13.35;100.00
26489;BME280;14169;43.684;10.484;2023-03-14T02:12:59;100950.69;;;13.39;100.00
26489;BME280;14169;43.684;10.484;2023-03-14T02:15:26;100961.78;;;13.44;100.00
26489;BME280;14169;43.684;10.484;2023-03-14T02:17:52;100957.19;;;13.51;100.00
26489;BME280;14169;43.684;10.484;2023-03-14T02:20:53;100949.16;;;13.55;100.00
26489;BME280;14169;43.684;10.484;2023-03-14T02:23:39;100938.59;;;13.57;100.00
26489;BME280;14169;43.684;10.484;2023-03-14T02:26:34;100924.72;;;13.55;100.00
26489;BME280;14169;43.684;10.484;2023-03-14T02:29:01;100932.41;;;13.59;100.00
26489;BME280;14169;43.684;10.484;2023-03-14T02:31:27;100925.19;;;13.64;100.00
26489;BME280;14169;43.684;10.484;2023-03-14T02:33:53;100920.03;;;13.63;100.00
26489;BME280;14169;43.684;10.484;2023-03-14T02:36:19;100933.19;;;13.61;100.00
26489;BME280;14169;43.684;10.484;2023-03-14T02:38:53;100928.91;;;13.59;100.00
26489;BME280;14169;43.684;10.484;2023-03-14T02:41:21;100925.25;;;13.63;100.00
26489;BME280;14169;43.684;10.484;2023-03-14T02:43:46;100918.38;;;13.60;100.00
26489;BME280;14169;43.684;10.484;2023-03-14T02:46:14;100920.94;;;13.62;100.00
26489;BME280;14169;43.684;10.484;2023-03-14T02:48:43;100928.78;;;13.62;100.00
26489;BME280;14169;43.684;10.484;2023-03-14T02:51:11;100932.06;;;13.67;100.00
26489;BME280;14169;43.684;10.484;2023-03-14T02:53:38;100935.34;;;13.72;100.00
26489;BME280;14169;43.684;10.484;2023-03-14T02:56:04;100935.28;;;13.73;100.00
26489;BME280;14169;43.684;10.484;2023-03-14T02:58:30;100931.75;;;13.74;100.00
26489;BME280;14169;43.684;10.484;2023-03-14T03:00:55;100935.28;;;13.73;100.00
26489;BME280;14169;43.684;10.484;2023-03-14T03:03:21;100929.78;;;13.79;100.00
26489;BME280;14169;43.684;10.484;2023-03-14T03:05:50;100933.16;;;13.83;100.00
26489;BME280;14169;43.684;10.484;2023-03-14T03:08:16;100936.47;;;13.86;100.00
26489;BME280;14169;43.684;10.484;2023-03-14T03:10:42;100933.72;;;13.89;100.00
26489;BME280;14169;43.684;10.484;2023-03-14T03:13:07;100925.81;;;13.91;100.00
26489;BME280;14169;43.684;10.484;2023-03-14T03:15:33;100937.91;;;13.93;100.00
26489;BME280;14169;43.684;10.484;2023-03-14T03:17:59;100944.88;;;13.94;100.00
26489;BME280;14169;43.684;10.484;2023-03-14T03:20:24;100954.72;;;13.88;100.00
26489;BME280;14169;43.684;10.484;2023-03-14T03:22:50;100954.72;;;13.88;100.00
26489;BME280;14169;43.684;10.484;2023-03-14T03:25:16;100956.38;;;13.90;100.00
26489;BME280;14169;43.684;10.484;2023-03-14T03:27:41;100951.88;;;13.94;100.00
26489;BME280;14169;43.684;10.484;2023-03-14T03:30:07;100950.22;;;13.91;100.00
26489;BME280;14169;43.684;10.484;2023-03-14T03:32:33;100957.44;;;13.86;100.00
26489;BME280;14169;43.684;10.484;2023-03-14T03:34:59;100945.31;;;13.84;100.00
26489;BME280;14169;43.684;10.484;2023-03-14T03:37:24;100921.75;;;13.84;100.00
26489;BME280;14169;43.684;10.484;2023-03-14T03:39:50;100851.19;;;13.81;100.00
26489;BME280;14169;43.684;10.484;2023-03-14T03:42:16;100820.06;;;13.73;100.00
26489;BME280;14169;43.684;10.484;2023-03-14T03:44:42;100842.22;;;13.66;100.00
26489;BME280;14169;43.684;10.484;2023-03-14T03:47:07;100839.75;;;13.63;100.00
26489;BME280;14169;43.684;10.484;2023-03-14T03:49:32;100799.69;;;13.61;100.00
26489;BME280;14169;43.684;10.484;2023-03-14T03:51:58;100817.16;;;13.61;100.00
26489;BME280;14169;43.684;10.484;2023-03-14T03:54:24;100831.28;;;13.57;100.00
26489;BME280;14169;43.684;10.484;2023-03-14T03:56:52;100827.72;;;13.58;100.00
26489;BME280;14169;43.684;10.484;2023-03-14T03:59:18;100849.72;;;13.54;100.00
26489;BME280;14169;43.684;10.484;2023-03-14T04:01:43;100849.72;;;13.54;100.00
26489;BME280;14169;43.684;10.484;2023-03-14T04:04:09;100846.31;;;13.52;100.00
26489;BME280;14169;43.684;10.484;2023-03-14T04:06:35;100848.16;;;13.49;100.00
26489;BME280;14169;43.684;10.484;2023-03-14T04:09:01;100848.28;;;13.46;100.00
26489;BME280;14169;43.684;10.484;2023-03-14T04:11:27;100860.69;;;13.41;100.00
26489;BME280;14169;43.684;10.484;2023-03-14T04:13:52;100880.81;;;13.41;100.00
26489;BME280;14169;43.684;10.484;2023-03-14T04:16:20;100891.22;;;13.42;100.00
26489;BME280;14169;43.684;10.484;2023-03-14T04:18:46;100874.47;;;13.46;100.00
26489;BME280;14169;43.684;10.484;2023-03-14T04:21:12;100863.06;;;13.47;100.00
26489;BME280;14169;43.684;10.484;2023-03-14T04:23:37;100861.38;;;13.46;100.00
26489;BME280;14169;43.684;10.484;2023-03-14T04:26:03;100861.22;;;13.49;100.00
26489;BME280;14169;43.684;10.484;2023-03-14T04:28:28;100859.47;;;13.50;100.00
26489;BME280;14169;43.684;10.484;2023-03-14T04:30:54;100855.03;;;13.52;100.00
26489;BME280;14169;43.684;10.484;2023-03-14T04:33:19;100847.00;;;13.57;100.00
26489;BME280;14169;43.684;10.484;2023-03-14T04:35:45;100824.28;;;13.57;100.00
26489;BME280;14169;43.684;10.484;2023-03-14T04:38:11;100800.66;;;13.59;100.00
26489;BME280;14169;43.684;10.484;2023-03-14T04:40:38;100810.09;;;13.63;100.00
26489;BME280;14169;43.684;10.484;2023-03-14T04:43:03;100803.00;;;13.65;100.00
26489;BME280;14169;43.684;10.484;2023-03-14T04:45:29;100796.06;;;13.64;100.00
26489;BME280;14169;43.684;10.484;2023-03-14T04:47:54;100804.56;;;13.69;100.00
26489;BME280;14169;43.684;10.484;2023-03-14T04:50:19;100793.06;;;13.73;100.00
26489;BME280;14169;43.684;10.484;2023-03-14T04:52:45;100797.25;;;13.77;100.00
26489;BME280;14169;43.684;10.484;2023-03-14T04:55:10;100802.47;;;13.77;100.00
26489;BME280;14169;43.684;10.484;2023-03-14T04:57:35;100789.31;;;13.78;100.00
26489;BME280;14169;43.684;10.484;2023-03-14T05:00:01;100785.84;;;13.78;100.00
26489;BME280;14169;43.684;10.484;2023-03-14T05:02:31;100778.75;;;13.80;100.00
26489;BME280;14169;43.684;10.484;2023-03-14T05:04:56;100756.06;;;13.80;100.00
26489;BME280;14169;43.684;10.484;2023-03-14T05:07:22;100742.97;;;13.80;100.00
26489;BME280;14169;43.684;10.484;2023-03-14T05:09:47;100731.63;;;13.80;100.00
26489;BME280;14169;43.684;10.484;2023-03-14T05:12:13;100728.16;;;13.79;100.00
26489;BME280;14169;43.684;10.484;2023-03-14T05:14:38;100728.22;;;13.78;100.00
26489;BME280;14169;43.684;10.484;2023-03-14T05:17:04;100733.38;;;13.79;100.00
26489;BME280;14169;43.684;10.484;2023-03-14T05:19:29;100747.50;;;13.77;100.00
26489;BME280;14169;43.684;10.484;2023-03-14T05:21:55;100751.09;;;13.74;100.00
26489;BME280;14169;43.684;10.484;2023-03-14T05:24:20;100751.88;;;13.76;100.00
26489;BME280;14169;43.684;10.484;2023-03-14T05:26:46;100741.31;;;13.78;100.00
26489;BME280;14169;43.684;10.484;2023-03-14T05:29:11;100759.44;;;13.82;100.00
26489;BME280;14169;43.684;10.484;2023-03-14T05:31:36;100748.00;;;13.85;100.00
26489;BME280;14169;43.684;10.484;2023-03-14T05:34:02;100701.63;;;13.87;100.00
26489;BME280;14169;43.684;10.484;2023-03-14T05:36:27;100703.53;;;13.83;100.00
26489;BME280;14169;43.684;10.484;2023-03-14T05:38:52;100701.75;;;13.84;100.00
26489;BME280;14169;43.684;10.484;2023-03-14T05:41:18;100699.22;;;13.82;100.00
26489;BME280;14169;43.684;10.484;2023-03-14T05:43:43;100705.38;;;13.81;100.00
26489;BME280;14169;43.684;10.484;2023-03-14T05:46:09;100715.91;;;13.80;100.00
26489;BME280;14169;43.684;10.484;2023-03-14T05:48:34;100715.13;;;13.78;100.00
26489;BME280;14169;43.684;10.484;2023-03-14T05:50:59;100727.44;;;13.76;100.00
26489;BME280;14169;43.684;10.484;2023-03-14T05:53:26;100709.97;;;13.76;100.00
26489;BME280;14169;43.684;10.484;2023-03-14T05:55:52;100705.66;;;13.75;100.00
26489;BME280;14169;43.684;10.484;2023-03-14T05:58:18;100717.91;;;13.75;100.00
26489;BME280;14169;43.684;10.484;2023-03-14T06:00:43;100712.53;;;13.78;100.00
26489;BME280;14169;43.684;10.484;2023-03-14T06:03:09;100710.84;;;13.77;100.00
26489;BME280;14169;43.684;10.484;2023-03-14T06:05:34;100709.13;;;13.76;100.00
26489;BME280;14169;43.684;10.484;2023-03-14T06:08:00;100715.28;;;13.75;100.00
26489;BME280;14169;43.684;10.484;2023-03-14T06:10:25;100700.41;;;13.75;100.00
26489;BME280;14169;43.684;10.484;2023-03-14T06:12:50;100707.28;;;13.78;100.00
26489;BME280;14169;43.684;10.484;2023-03-14T06:15:16;100709.00;;;13.79;100.00
26489;BME280;14169;43.684;10.484;2023-03-14T06:17:41;100722.13;;;13.77;100.00
26489;BME280;14169;43.684;10.484;2023-03-14T06:20:07;100706.41;;;13.77;100.00
26489;BME280;14169;43.684;10.484;2023-03-14T06:22:33;100715.84;;;13.81;100.00
26489;BME280;14169;43.684;10.484;2023-03-14T06:24:58;100713.22;;;13.81;100.00
26489;BME280;14169;43.684;10.484;2023-03-14T06:27:24;100702.81;;;13.80;100.00
26489;BME280;14169;43.684;10.484;2023-03-14T06:29:49;100690.59;;;13.80;100.00
26489;BME280;14169;43.684;10.484;2023-03-14T06:32:15;100695.66;;;13.83;100.00
26489;BME280;14169;43.684;10.484;2023-03-14T06:34:40;100686.06;;;13.84;100.00
26489;BME280;14169;43.684;10.484;2023-03-14T06:37:06;100680.97;;;13.81;100.00
26489;BME280;14169;43.684;10.484;2023-03-14T06:39:31;100677.50;;;13.80;100.00
26489;BME280;14169;43.684;10.484;2023-03-14T06:41:57;100680.13;;;13.80;100.00
26489;BME280;14169;43.684;10.484;2023-03-14T06:44:22;100659.25;;;13.79;100.00
26489;BME280;14169;43.684;10.484;2023-03-14T06:46:47;100643.59;;;13.77;100.00
26489;BME280;14169;43.684;10.484;2023-03-14T06:49:13;100644.72;;;13.72;100.00
26489;BME280;14169;43.684;10.484;2023-03-14T06:51:41;100645.66;;;13.71;100.00
26489;BME280;14169;43.684;10.484;2023-03-14T06:54:07;100627.41;;;13.69;100.00
26489;BME280;14169;43.684;10.484;2023-03-14T06:56:32;100630.84;;;13.70;100.00
26489;BME280;14169;43.684;10.484;2023-03-14T06:58:58;100642.19;;;13.70;100.00
26489;BME280;14169;43.684;10.484;2023-03-14T07:01:26;100632.69;;;13.68;100.00
26489;BME280;14169;43.684;10.484;2023-03-14T07:03:53;100630.78;;;13.71;100.00
26489;BME280;14169;43.684;10.484;2023-03-14T07:06:18;100640.25;;;13.74;100.00
26489;BME280;14169;43.684;10.484;2023-03-14T07:08:44;100630.66;;;13.74;100.00
26489;BME280;14169;43.684;10.484;2023-03-14T07:11:10;100619.25;;;13.75;100.00
26489;BME280;14169;43.684;10.484;2023-03-14T07:13:38;100614.88;;;13.76;100.00
26489;BME280;14169;43.684;10.484;2023-03-14T07:16:04;100621.03;;;13.75;100.00
26489;BME280;14169;43.684;10.484;2023-03-14T07:18:29;100602.91;;;13.70;100.00
26489;BME280;14169;43.684;10.484;2023-03-14T07:20:55;100597.69;;;13.70;100.00
26489;BME280;14169;43.684;10.484;2023-03-14T07:23:20;100595.84;;;13.72;100.00
26489;BME280;14169;43.684;10.484;2023-03-14T07:25:46;100596.75;;;13.71;100.00
26489;BME280;14169;43.684;10.484;2023-03-14T07:28:12;100599.34;;;13.71;100.00
26489;BME280;14169;43.684;10.484;2023-03-14T07:30:37;100603.59;;;13.74;100.00
26489;BME280;14169;43.684;10.484;2023-03-14T07:33:02;100607.94;;;13.75;100.00
26489;BME280;14169;43.684;10.484;2023-03-14T07:35:28;100613.09;;;13.76;100.00
26489;BME280;14169;43.684;10.484;2023-03-14T07:37:53;100610.41;;;13.78;100.00
26489;BME280;14169;43.684;10.484;2023-03-14T07:40:19;100614.66;;;13.80;100.00
26489;BME280;14169;43.684;10.484;2023-03-14T07:42:44;100614.44;;;13.85;100.00
26489;BME280;14169;43.684;10.484;2023-03-14T07:45:10;100615.22;;;13.87;100.00
26489;BME280;14169;43.684;10.484;2023-03-14T07:47:35;100603.81;;;13.88;100.00
26489;BME280;14169;43.684;10.484;2023-03-14T07:50:02;100606.34;;;13.89;100.00
26489;BME280;14169;43.684;10.484;2023-03-14T07:52:27;100607.28;;;13.88;100.00
26489;BME280;14169;43.684;10.484;2023-03-14T07:54:53;100613.38;;;13.89;100.00
26489;BME280;14169;43.684;10.484;2023-03-14T07:57:18;100607.97;;;13.92;100.00
26489;BME280;14169;43.684;10.484;2023-03-14T07:59:43;100609.69;;;13.93;100.00
26489;BME280;14169;43.684;10.484;2023-03-14T08:02:12;100613.91;;;13.95;100.00
26489;BME280;14169;43.684;10.484;2023-03-14T08:04:39;100607.78;;;13.96;100.00
26489;BME280;14169;43.684;10.484;2023-03-14T08:07:05;100611.00;;;14.01;100.00
26489;BME280;14169;43.684;10.484;2023-03-14T08:09:30;100616.97;;;14.05;100.00
26489;BME280;14169;43.684;10.484;2023-03-14T08:11:55;100613.41;;;14.06;100.00
26489;BME280;14169;43.684;10.484;2023-03-14T08:14:21;100608.03;;;14.09;100.00
26489;BME280;14169;43.684;10.484;2023-03-14T08:16:49;100599.09;;;14.13;100.00
26489;BME280;14169;43.684;10.484;2023-03-14T08:19:15;100605.13;;;14.15;100.00
26489;BME280;14169;43.684;10.484;2023-03-14T08:21:40;100592.94;;;14.14;100.00
26489;BME280;14169;43.684;10.484;2023-03-14T08:24:05;100599.03;;;14.14;100.00
26489;BME280;14169;43.684;10.484;2023-03-14T08:26:31;100600.78;;;14.14;100.00
26489;BME280;14169;43.684;10.484;2023-03-14T08:28:56;100610.41;;;14.13;100.00
26489;BME280;14169;43.684;10.484;2023-03-14T08:31:22;100605.25;;;14.12;100.00
26489;BME280;14169;43.684;10.484;2023-03-14T08:33:47;100597.31;;;14.13;100.00
26489;BME280;14169;43.684;10.484;2023-03-14T08:36:12;100610.19;;;14.18;100.00
26489;BME280;14169;43.684;10.484;2023-03-14T08:38:38;100610.84;;;14.23;100.00
26489;BME280;14169;43.684;10.484;2023-03-14T08:41:04;100606.22;;;14.28;100.00
26489;BME280;14169;43.684;10.484;2023-03-14T08:43:30;100613.09;;;14.30;100.00
26489;BME280;14169;43.684;10.484;2023-03-14T08:46:00;100617.38;;;14.33;100.00
26489;BME280;14169;43.684;10.484;2023-03-14T08:48:25;100619.81;;;14.36;100.00
26489;BME280;14169;43.684;10.484;2023-03-14T08:50:51;100617.03;;;14.39;100.00
26489;BME280;14169;43.684;10.484;2023-03-14T08:53:16;100613.28;;;14.45;100.00
26489;BME280;14169;43.684;10.484;2023-03-14T08:55:42;100619.97;;;14.50;100.00
26489;BME280;14169;43.684;10.484;2023-03-14T08:58:07;100624.06;;;14.56;100.00
26489;BME280;14169;43.684;10.484;2023-03-14T09:00:32;100623.16;;;14.57;100.00
26489;BME280;14169;43.684;10.484;2023-03-14T09:02:58;100609.88;;;14.60;100.00
26489;BME280;14169;43.684;10.484;2023-03-14T09:05:23;100611.41;;;14.64;100.00
26489;BME280;14169;43.684;10.484;2023-03-14T09:07:49;100615.66;;;14.66;100.00
26489;BME280;14169;43.684;10.484;2023-03-14T09:10:14;100621.59;;;14.70;100.00
26489;BME280;14169;43.684;10.484;2023-03-14T09:12:39;100622.28;;;14.73;100.00
26489;BME280;14169;43.684;10.484;2023-03-14T09:15:05;100619.53;;;14.76;100.00
26489;BME280;14169;43.684;10.484;2023-03-14T09:17:31;100614.09;;;14.79;100.00
26489;BME280;14169;43.684;10.484;2023-03-14T09:19:56;100620.13;;;14.81;100.00
26489;BME280;14169;43.684;10.484;2023-03-14T09:22:21;100606.94;;;14.83;100.00
26489;BME280;14169;43.684;10.484;2023-03-14T09:24:47;100602.47;;;14.85;100.00
26489;BME280;14169;43.684;10.484;2023-03-14T09:27:12;100605.09;;;14.85;100.00
26489;BME280;14169;43.684;10.484;2023-03-14T09:29:38;100592.00;;;14.85;100.00
26489;BME280;14169;43.684;10.484;2023-03-14T09:32:03;100604.16;;;14.86;100.00
26489;BME280;14169;43.684;10.484;2023-03-14T09:34:29;100590.97;;;14.87;100.00
26489;BME280;14169;43.684;10.484;2023-03-14T09:36:54;100603.25;;;14.87;100.00
26489;BME280;14169;43.684;10.484;2023-03-14T09:39:20;100588.34;;;14.87;100.00
26489;BME280;14169;43.684;10.484;2023-03-14T09:41:48;100595.28;;;14.88;100.00
26489;BME280;14169;43.684;10.484;2023-03-14T09:44:30;100598.78;;;14.89;100.00
26489;BME280;14169;43.684;10.484;2023-03-14T09:47:07;100594.13;;;14.94;100.00
26489;BME280;14169;43.684;10.484;2023-03-14T09:49:42;100590.31;;;14.99;100.00
26489;BME280;14169;43.684;10.484;2023-03-14T09:52:14;100582.47;;;15.15;100.00
26489;BME280;14169;43.684;10.484;2023-03-14T09:55:02;100572.03;;;15.31;100.00
26489;BME280;14169;43.684;10.484;2023-03-14T09:57:29;100570.75;;;15.38;100.00
26489;BME280;14169;43.684;10.484;2023-03-14T09:59:57;100598.09;;;15.34;100.00
26489;BME280;14169;43.684;10.484;2023-03-14T10:02:33;100629.84;;;14.79;100.00
26489;BME280;14169;43.684;10.484;2023-03-14T10:04:59;100635.41;;;13.85;100.00
26489;BME280;14169;43.684;10.484;2023-03-14T10:07:30;100657.53;;;13.00;100.00
26489;BME280;14169;43.684;10.484;2023-03-14T10:09:56;100654.88;;;12.60;100.00
26489;BME280;14169;43.684;10.484;2023-03-14T10:12:36;100656.66;;;12.39;100.00
26489;BME280;14169;43.684;10.484;2023-03-14T10:15:05;100637.56;;;12.37;100.00
26489;BME280;14169;43.684;10.484;2023-03-14T10:17:41;100643.38;;;12.44;100.00
26489;BME280;14169;43.684;10.484;2023-03-14T10:22:52;100637.91;;;12.70;100.00
26489;BME280;14169;43.684;10.484;2023-03-14T10:25:30;100641.19;;;12.95;100.00
26489;BME280;14169;43.684;10.484;2023-03-14T10:27:55;100649.56;;;13.23;100.00
26489;BME280;14169;43.684;10.484;2023-03-14T10:33:24;100636.13;;;14.05;100.00
26489;BME280;14169;43.684;10.484;2023-03-14T10:36:01;100635.72;;;14.33;100.00
26489;BME280;14169;43.684;10.484;2023-03-14T10:38:29;100631.78;;;14.59;100.00
26489;BME280;14169;43.684;10.484;2023-03-14T10:40:55;100629.69;;;15.32;100.00
26489;BME280;14169;43.684;10.484;2023-03-14T10:43:34;100619.53;;;15.59;100.00
26489;BME280;14169;43.684;10.484;2023-03-14T10:48:36;100628.84;;;15.49;100.00
26489;BME280;14169;43.684;10.484;2023-03-14T10:53:47;100624.09;;;16.02;100.00
26489;BME280;14169;43.684;10.484;2023-03-14T10:56:18;100640.53;;;16.21;100.00
26489;BME280;14169;43.684;10.484;2023-03-14T10:58:49;100611.59;;;16.52;100.00
26489;BME280;14169;43.684;10.484;2023-03-14T11:01:36;100594.44;;;16.45;100.00
26489;BME280;14169;43.684;10.484;2023-03-14T11:10:18;100565.88;;;17.25;100.00
26489;BME280;14169;43.684;10.484;2023-03-14T11:15:36;100551.69;;;17.83;100.00
26489;BME280;14169;43.684;10.484;2023-03-14T11:19:06;100543.84;;;17.95;100.00
26489;BME280;14169;43.684;10.484;2023-03-14T11:21:27;100538.94;;;17.62;100.00
26489;BME280;14169;43.684;10.484;2023-03-14T11:26:55;100544.56;;;16.88;100.00
26489;BME280;14169;43.684;10.484;2023-03-14T11:29:43;100556.47;;;16.93;100.00
26489;BME280;14169;43.684;10.484;2023-03-14T11:35:08;100548.47;;;17.92;100.00
26489;BME280;14169;43.684;10.484;2023-03-14T11:37:46;100523.00;;;18.17;100.00
26489;BME280;14169;43.684;10.484;2023-03-14T11:42:42;100523.56;;;17.56;100.00
26489;BME280;14169;43.684;10.484;2023-03-14T11:45:22;100507.56;;;17.31;100.00
26489;BME280;14169;43.684;10.484;2023-03-14T11:50:32;100529.03;;;17.11;100.00
26489;BME280;14169;43.684;10.484;2023-03-14T11:53:04;100491.28;;;16.98;100.00
26489;BME280;14169;43.684;10.484;2023-03-14T11:55:34;100493.31;;;16.93;100.00
26489;BME280;14169;43.684;10.484;2023-03-14T11:58:09;100504.69;;;16.94;100.00
26489;BME280;14169;43.684;10.484;2023-03-14T12:00:38;100505.06;;;16.73;100.00
26489;BME280;14169;43.684;10.484;2023-03-14T12:08:39;100497.91;;;16.47;100.00
26489;BME280;14169;43.684;10.484;2023-03-14T12:11:30;100499.44;;;16.65;100.00
26489;BME280;14169;43.684;10.484;2023-03-14T12:13:57;100496.50;;;16.42;100.00
26489;BME280;14169;43.684;10.484;2023-03-14T12:18:48;100478.38;;;16.51;100.00
26489;BME280;14169;43.684;10.484;2023-03-14T12:21:14;100487.06;;;16.38;100.00
26489;BME280;14169;43.684;10.484;2023-03-14T12:23:55;100481.50;;;16.86;100.00
26489;BME280;14169;43.684;10.484;2023-03-14T12:26:25;100476.97;;;17.02;100.00
26489;BME280;14169;43.684;10.484;2023-03-14T12:36:53;100450.13;;;17.38;100.00
26489;BME280;14169;43.684;10.484;2023-03-14T12:44:50;100418.72;;;16.94;100.00
26489;BME280;14169;43.684;10.484;2023-03-14T12:49:49;100422.72;;;17.14;100.00
26489;BME280;14169;43.684;10.484;2023-03-14T12:52:20;100418.66;;;16.67;100.00
26489;BME280;14169;43.684;10.484;2023-03-14T12:55:07;100414.72;;;16.74;100.00
26489;BME280;14169;43.684;10.484;2023-03-14T13:00:11;100425.22;;;16.89;100.00
26489;BME280;14169;43.684;10.484;2023-03-14T13:02:42;100416.00;;;17.76;100.00
26489;BME280;14169;43.684;10.484;2023-03-14T13:10:26;100391.19;;;16.85;100.00
26489;BME280;14169;43.684;10.484;2023-03-14T13:15:43;100405.50;;;16.67;100.00
26489;BME280;14169;43.684;10.484;2023-03-14T13:18:27;100392.09;;;16.99;100.00
26489;BME280;14169;43.684;10.484;2023-03-14T13:21:01;100420.31;;;17.77;100.00
26489;BME280;14169;43.684;10.484;2023-03-14T13:23:33;100397.69;;;17.74;100.00
26489;BME280;14169;43.684;10.484;2023-03-14T13:26:00;100403.19;;;17.30;100.00
26489;BME280;14169;43.684;10.484;2023-03-14T13:28:27;100389.50;;;16.84;100.00
26489;BME280;14169;43.684;10.484;2023-03-14T13:31:00;100387.06;;;17.22;100.00
26489;BME280;14169;43.684;10.484;2023-03-14T13:33:26;100396.78;;;17.08;100.00
26489;BME280;14169;43.684;10.484;2023-03-14T13:35:55;100383.88;;;16.34;100.00
26489;BME280;14169;43.684;10.484;2023-03-14T13:38:30;100378.09;;;17.25;100.00
26489;BME280;14169;43.684;10.484;2023-03-14T13:40:57;100368.84;;;16.78;100.00